Time;durP1;ratioP1;P1;durP2;ratioP2;P2;SDS_P1;SDS_P2;PMS_P1;PMS_P2;Temp;Humidity;BMP_temperature;BMP_pressure;BME280_temperature;BME280_humidity;BME280_pressure;Samples;Min_cycle;Max_cycle;Signal;HPM_P1;HPM_P2
2021/08/11 00:01:59;;;;;;;5.68;4.50;;;17.20;93.00;;;;;;3542739;40;20034;-68
2021/08/11 00:04:24;;;;;;;5.85;4.13;;;17.20;93.00;;;;;;3542363;40;20046;-69
2021/08/11 00:06:50;;;;;;;5.85;4.00;;;17.10;92.90;;;;;;3542451;40;20057;-70
2021/08/11 00:09:16;;;;;;;7.55;4.70;;;17.20;92.90;;;;;;3549034;40;20014;-70
2021/08/11 00:11:41;;;;;;;8.60;4.95;;;17.20;92.80;;;;;;3542240;40;20050;-69
2021/08/11 00:14:08;;;;;;;6.97;4.22;;;17.20;92.80;;;;;;3542142;40;20071;-69
2021/08/11 00:16:33;;;;;;;6.20;4.43;;;17.10;92.80;;;;;;3542507;40;20112;-68
2021/08/11 00:18:59;;;;;;;5.43;4.13;;;17.20;92.70;;;;;;3541951;40;20038;-69
2021/08/11 00:21:25;;;;;;;5.80;4.30;;;17.10;92.70;;;;;;3542198;40;20041;-68
2021/08/11 00:23:51;;;;;;;6.65;4.10;;;17.10;92.60;;;;;;3542345;40;20038;-69
2021/08/11 00:26:16;;;;;;;8.50;5.20;;;17.00;92.60;;;;;;3541839;40;20027;-69
2021/08/11 00:28:42;;;;;;;8.20;5.15;;;17.00;92.50;;;;;;3540410;40;20056;-69
2021/08/11 00:31:08;;;;;;;6.15;5.22;;;17.00;92.60;;;;;;3539935;40;20034;-69
2021/08/11 00:33:34;;;;;;;6.63;4.75;;;16.90;92.50;;;;;;3540409;40;20034;-69
2021/08/11 00:36:00;;;;;;;7.07;4.45;;;16.90;92.50;;;;;;3540388;40;20042;-69
2021/08/11 00:38:26;;;;;;;7.65;5.20;;;16.90;92.60;;;;;;3541037;40;20022;-69
2021/08/11 00:40:59;;;;;;;6.82;5.43;;;16.90;92.70;;;;;;3540884;40;20031;-69
2021/08/11 00:43:26;;;;;;;7.22;5.18;;;16.80;92.80;;;;;;3548760;40;20026;-69
2021/08/11 00:45:52;;;;;;;8.65;5.70;;;16.80;92.80;;;;;;3540669;40;20026;-70
2021/08/11 00:48:20;;;;;;;6.15;4.95;;;16.80;92.90;;;;;;3549282;40;20066;-69
2021/08/11 00:50:47;;;;;;;7.70;5.03;;;16.80;92.70;;;;;;3541059;40;20144;-69
2021/08/11 00:53:15;;;;;;;8.30;4.80;;;16.80;92.60;;;;;;3542362;40;20319;-69
2021/08/11 00:55:42;;;;;;;6.82;4.90;;;16.70;92.60;;;;;;3540798;40;20062;-69
2021/08/11 00:58:11;;;;;;;7.53;4.80;;;16.70;92.60;;;;;;3540749;40;20070;-69
2021/08/11 01:00:47;;;;;;;5.28;4.53;;;16.70;92.60;;;;;;3548864;40;20046;-69
2021/08/11 01:03:19;;;;;;;6.97;5.55;;;16.60;92.60;;;;;;3549625;40;20437;-69
2021/08/11 01:05:47;;;;;;;6.18;5.13;;;16.70;92.80;;;;;;3539235;40;20049;-69
2021/08/11 01:08:13;;;;;;;7.95;5.70;;;16.70;92.80;;;;;;3549071;40;20042;-68
2021/08/11 01:10:41;;;;;;;8.10;5.60;;;16.70;92.80;;;;;;3547858;40;20097;-69
2021/08/11 01:13:10;;;;;;;7.57;5.15;;;16.60;92.90;;;;;;3548364;40;20770;-68
2021/08/11 01:15:37;;;;;;;8.32;5.90;;;16.60;92.80;;;;;;3539967;40;20345;-69
2021/08/11 01:18:03;;;;;;;6.15;5.07;;;16.60;92.70;;;;;;3540277;40;20096;-69
2021/08/11 01:20:32;;;;;;;9.48;5.60;;;16.60;92.60;;;;;;3540387;40;20038;-69
2021/08/11 01:23:03;;;;;;;10.05;5.68;;;16.60;92.50;;;;;;3540959;40;20735;-69
2021/08/11 01:25:34;;;;;;;7.80;5.78;;;16.50;92.40;;;;;;3548827;40;20078;-68
2021/08/11 01:28:24;;;;;;;7.97;5.85;;;16.50;92.40;;;;;;3544763;40;20076;-69
2021/08/11 01:31:08;;;;;;;7.03;4.97;;;16.50;92.70;;;;;;3548708;40;20046;-67
2021/08/11 01:34:22;;;;;;;7.97;5.22;;;16.50;92.30;;;;;;3540888;40;20312;-69
2021/08/11 01:36:57;;;;;;;7.45;5.47;;;16.40;92.30;;;;;;3517141;40;20030;-68
2021/08/11 01:39:33;;;;;;;8.45;5.40;;;16.40;92.20;;;;;;3539568;40;20034;-68
2021/08/11 01:42:32;;;;;;;10.43;5.60;;;16.30;92.30;;;;;;3547443;40;20043;-68
2021/08/11 01:45:16;;;;;;;8.18;5.30;;;16.30;92.40;;;;;;3535488;40;20047;-69
2021/08/11 01:48:14;;;;;;;7.30;5.50;;;16.30;92.50;;;;;;3548568;40;20044;-68
2021/08/11 01:50:45;;;;;;;7.55;5.85;;;16.30;92.50;;;;;;3542277;40;20031;-69
2021/08/11 01:53:18;;;;;;;7.18;5.55;;;16.30;92.50;;;;;;3540320;40;20054;-68
2021/08/11 01:55:51;;;;;;;7.05;5.53;;;16.20;92.40;;;;;;3548859;40;20038;-68
2021/08/11 01:58:24;;;;;;;7.10;5.47;;;16.20;92.40;;;;;;3541506;40;20050;-68
2021/08/11 02:00:53;;;;;;;8.30;5.40;;;16.20;92.50;;;;;;3539188;40;20413;-69
2021/08/11 02:03:23;;;;;;;12.50;5.85;;;16.20;92.30;;;;;;3540772;40;20507;-68
2021/08/11 02:05:53;;;;;;;8.15;6.40;;;16.10;92.30;;;;;;3539981;40;20323;-67
2021/08/11 02:08:24;;;;;;;7.80;5.28;;;16.10;92.30;;;;;;3548524;40;20050;-69
2021/08/11 02:10:57;;;;;;;7.45;6.05;;;16.10;92.40;;;;;;3541367;40;20046;-68
2021/08/11 02:13:27;;;;;;;6.18;4.93;;;16.10;92.30;;;;;;3537875;40;20038;-68
2021/08/11 02:15:53;;;;;;;8.52;6.15;;;16.10;92.50;;;;;;3539364;40;20043;-69
2021/08/11 02:18:20;;;;;;;7.60;5.72;;;16.00;92.20;;;;;;3539405;40;20063;-68
2021/08/11 02:20:50;;;;;;;6.85;5.38;;;16.00;92.20;;;;;;3540158;40;20053;-68
2021/08/11 02:23:16;;;;;;;6.90;5.88;;;15.90;92.30;;;;;;3540391;40;20475;-69
2021/08/11 02:25:49;;;;;;;7.30;5.75;;;15.90;92.30;;;;;;3548408;40;20686;-67
2021/08/11 02:28:52;;;;;;;7.20;5.80;;;15.90;92.20;;;;;;3537276;40;20039;-68
2021/08/11 02:31:33;;;;;;;8.10;5.43;;;15.90;92.30;;;;;;3540214;40;20383;-69
2021/08/11 02:34:06;;;;;;;7.57;5.57;;;15.80;92.30;;;;;;3539537;40;20140;-68
2021/08/11 02:36:44;;;;;;;8.93;6.03;;;15.80;92.30;;;;;;3539267;40;20094;-69
2021/08/11 02:39:13;;;;;;;6.88;6.15;;;15.80;92.20;;;;;;3548305;40;20659;-69
2021/08/11 02:42:05;;;;;;;8.60;5.88;;;15.70;92.20;;;;;;3539203;40;20078;-69
2021/08/11 02:44:38;;;;;;;7.90;5.68;;;15.70;92.30;;;;;;3547895;40;20049;-70
2021/08/11 02:47:05;;;;;;;7.47;6.32;;;15.70;92.40;;;;;;3541386;40;20400;-68
2021/08/11 02:49:35;;;;;;;11.52;6.95;;;15.70;92.30;;;;;;3539899;40;20638;-68
2021/08/11 02:52:06;;;;;;;6.82;5.63;;;15.70;92.30;;;;;;3539695;40;20753;-68
2021/08/11 02:54:33;;;;;;;13.85;6.18;;;15.60;92.20;;;;;;3538732;40;20075;-69
2021/08/11 02:57:01;;;;;;;8.57;7.20;;;15.60;92.20;;;;;;3541212;40;20045;-68
2021/08/11 02:59:29;;;;;;;10.90;7.00;;;15.60;92.20;;;;;;3549113;40;20448;-69
2021/08/11 03:01:55;;;;;;;9.75;6.75;;;15.60;92.30;;;;;;3548567;40;20421;-69
2021/08/11 03:04:21;;;;;;;9.13;6.35;;;15.50;92.30;;;;;;3549888;40;20046;-69
2021/08/11 03:06:48;;;;;;;6.88;5.97;;;15.50;92.20;;;;;;3541444;40;20050;-68
2021/08/11 03:09:15;;;;;;;9.00;6.53;;;15.50;92.30;;;;;;3549537;40;20038;-69
2021/08/11 03:11:41;;;;;;;9.70;6.30;;;15.50;92.40;;;;;;3541776;40;20034;-69
2021/08/11 03:14:11;;;;;;;11.02;6.40;;;15.50;92.80;;;;;;3541158;40;20043;-69
2021/08/11 03:16:38;;;;;;;9.05;6.32;;;15.50;92.40;;;;;;3541415;40;20658;-67
2021/08/11 03:19:05;;;;;;;8.75;6.18;;;15.50;92.50;;;;;;3541393;40;20050;-68
2021/08/11 03:21:33;;;;;;;12.63;7.32;;;15.40;92.40;;;;;;3540175;40;20051;-68
2021/08/11 03:24:00;;;;;;;9.05;6.63;;;15.40;92.40;;;;;;3541256;40;20055;-68
2021/08/11 03:26:27;;;;;;;11.55;6.55;;;15.40;92.40;;;;;;3540449;40;20561;-68
2021/08/11 03:28:59;;;;;;;10.82;6.78;;;15.40;92.40;;;;;;3541096;40;20046;-69
2021/08/11 03:31:26;;;;;;;10.55;6.07;;;15.40;92.40;;;;;;3543406;40;20744;-68
2021/08/11 03:33:53;;;;;;;11.20;6.63;;;15.40;92.50;;;;;;3541294;40;20058;-69
2021/08/11 03:36:19;;;;;;;13.30;7.32;;;15.30;92.40;;;;;;3540817;40;20041;-68
2021/08/11 03:38:45;;;;;;;9.68;7.03;;;15.30;92.40;;;;;;3541353;40;20026;-67
2021/08/11 03:41:12;;;;;;;9.43;7.50;;;15.30;92.50;;;;;;3542038;40;20120;-67
2021/08/11 03:43:37;;;;;;;9.68;7.25;;;15.30;92.50;;;;;;3539800;40;20403;-67
2021/08/11 03:46:04;;;;;;;8.05;6.60;;;15.30;92.50;;;;;;3549246;40;20170;-68
2021/08/11 03:48:30;;;;;;;8.85;6.78;;;15.30;92.30;;;;;;3549331;40;20035;-68
2021/08/11 03:50:56;;;;;;;8.38;7.22;;;15.30;92.30;;;;;;3541093;40;20393;-68
2021/08/11 03:53:22;;;;;;;13.27;6.80;;;15.30;92.20;;;;;;3542396;40;20038;-68
2021/08/11 03:55:48;;;;;;;8.48;6.70;;;15.30;92.30;;;;;;3538803;40;20023;-68
2021/08/11 03:58:13;;;;;;;8.25;7.07;;;15.30;92.40;;;;;;3549746;40;20090;-68
2021/08/11 04:00:41;;;;;;;11.82;7.20;;;15.20;92.30;;;;;;3541064;40;20026;-68
2021/08/11 04:03:06;;;;;;;11.95;6.22;;;15.20;92.60;;;;;;3542764;40;20049;-68
2021/08/11 04:05:32;;;;;;;9.30;6.13;;;15.20;92.60;;;;;;3542117;40;20140;-68
2021/08/11 04:07:58;;;;;;;8.32;6.50;;;15.20;92.50;;;;;;3540515;40;20501;-68
2021/08/11 04:10:23;;;;;;;10.20;6.95;;;15.20;92.40;;;;;;3541915;40;20759;-68
2021/08/11 04:12:49;;;;;;;7.78;6.68;;;15.20;92.40;;;;;;3542211;40;20077;-68
2021/08/11 04:15:15;;;;;;;11.38;7.30;;;15.20;92.50;;;;;;3542622;40;20043;-68
2021/08/11 04:17:40;;;;;;;8.85;6.95;;;15.20;92.50;;;;;;3541981;40;20069;-68
2021/08/11 04:20:06;;;;;;;10.55;7.20;;;15.20;92.40;;;;;;3541938;40;20112;-68
2021/08/11 04:22:32;;;;;;;8.27;6.65;;;15.20;92.30;;;;;;3542050;40;20209;-68
2021/08/11 04:24:58;;;;;;;7.43;6.18;;;15.20;92.40;;;;;;3541997;40;20092;-68
2021/08/11 04:27:23;;;;;;;8.85;7.03;;;15.20;92.40;;;;;;3542107;40;20094;-69
2021/08/11 04:29:49;;;;;;;9.10;6.47;;;15.20;92.40;;;;;;3541402;40;20763;-68
2021/08/11 04:32:15;;;;;;;7.78;6.18;;;15.10;92.40;;;;;;3541664;40;20050;-68
2021/08/11 04:34:40;;;;;;;7.07;6.25;;;15.20;92.50;;;;;;3541564;40;20045;-67
2021/08/11 04:37:06;;;;;;;9.63;6.57;;;15.20;92.60;;;;;;3541721;40;20038;-67
2021/08/11 04:39:32;;;;;;;8.70;6.53;;;15.30;92.70;;;;;;3541852;40;20031;-69
2021/08/11 04:41:58;;;;;;;10.43;7.72;;;15.40;92.80;;;;;;3541399;40;20113;-69
2021/08/11 04:44:24;;;;;;;14.52;8.50;;;15.50;92.90;;;;;;3541991;40;20030;-69
2021/08/11 04:46:49;;;;;;;11.10;9.02;;;15.60;93.00;;;;;;3541024;40;20407;-68
2021/08/11 04:49:15;;;;;;;14.65;9.07;;;15.70;93.00;;;;;;3540022;40;20062;-67
2021/08/11 04:51:40;;;;;;;15.18;10.30;;;15.80;92.90;;;;;;3541855;40;20046;-68
2021/08/11 04:54:06;;;;;;;11.32;9.60;;;15.90;92.90;;;;;;3541331;40;20556;-69
2021/08/11 04:56:32;;;;;;;13.38;9.70;;;16.00;92.90;;;;;;3541797;40;20053;-69
2021/08/11 04:58:57;;;;;;;15.73;11.77;;;16.10;92.90;;;;;;3548151;40;20035;-69
2021/08/11 05:01:23;;;;;;;16.65;11.48;;;16.20;92.90;;;;;;3541607;40;20446;-69
2021/08/11 05:03:48;;;;;;;14.57;11.52;;;16.20;92.80;;;;;;3541561;40;20042;-69
2021/08/11 05:06:14;;;;;;;15.70;12.20;;;16.30;92.70;;;;;;3541773;40;20728;-67
2021/08/11 05:08:40;;;;;;;13.40;10.60;;;16.30;92.60;;;;;;3541903;40;20503;-68
2021/08/11 05:11:06;;;;;;;13.63;10.75;;;16.30;92.50;;;;;;3548379;40;20042;-67
2021/08/11 05:13:32;;;;;;;15.13;11.40;;;16.40;92.40;;;;;;3542366;40;20045;-68
2021/08/11 05:15:57;;;;;;;14.80;10.82;;;16.50;92.40;;;;;;3541276;40;20455;-68
2021/08/11 05:18:24;;;;;;;14.25;11.20;;;16.50;92.30;;;;;;3542014;40;20042;-69
2021/08/11 05:20:50;;;;;;;15.02;12.07;;;16.60;92.30;;;;;;3541451;40;20378;-69
2021/08/11 05:23:16;;;;;;;18.33;11.20;;;16.60;92.20;;;;;;3541812;40;20117;-68
2021/08/11 05:25:42;;;;;;;21.38;11.70;;;16.60;92.10;;;;;;3542086;40;20054;-68
2021/08/11 05:28:08;;;;;;;16.08;12.65;;;16.70;92.10;;;;;;3541488;40;20074;-69
2021/08/11 05:30:36;;;;;;;14.65;10.85;;;16.70;91.90;;;;;;3541954;40;20086;-69
2021/08/11 05:33:01;;;;;;;16.52;11.48;;;16.70;92.00;;;;;;3541439;40;20069;-68
2021/08/11 05:35:27;;;;;;;14.05;11.10;;;16.70;91.90;;;;;;3541243;40;20042;-69
2021/08/11 05:37:53;;;;;;;18.60;12.93;;;16.70;91.80;;;;;;3541731;40;20026;-68
2021/08/11 05:40:19;;;;;;;14.20;10.95;;;16.80;91.90;;;;;;3541465;40;20046;-69
2021/08/11 05:42:45;;;;;;;12.55;10.90;;;16.80;91.80;;;;;;3542052;40;20082;-69
2021/08/11 05:45:11;;;;;;;15.20;11.35;;;16.80;91.80;;;;;;3540467;40;20085;-69
2021/08/11 05:47:37;;;;;;;12.85;10.50;;;16.90;91.90;;;;;;3541513;40;20038;-68
2021/08/11 05:50:04;;;;;;;13.25;10.82;;;17.00;91.80;;;;;;3541818;40;20141;-69
2021/08/11 05:52:30;;;;;;;14.07;11.52;;;17.00;91.80;;;;;;3541177;40;20047;-69
2021/08/11 05:54:55;;;;;;;17.73;13.45;;;17.10;91.80;;;;;;3541777;40;20185;-68
2021/08/11 05:57:21;;;;;;;18.65;12.52;;;17.10;91.80;;;;;;3541535;40;20177;-69
2021/08/11 05:59:48;;;;;;;18.15;12.77;;;17.20;91.70;;;;;;3541634;40;20030;-69
2021/08/11 06:02:14;;;;;;;17.23;12.90;;;17.20;91.60;;;;;;3541653;40;20085;-69
2021/08/11 06:04:48;;;;;;;19.00;12.57;;;17.20;91.60;;;;;;3540533;40;20042;-68
2021/08/11 06:07:14;;;;;;;17.92;12.77;;;17.30;91.70;;;;;;3541982;40;20038;-68
2021/08/11 06:09:40;;;;;;;14.10;11.68;;;17.40;91.70;;;;;;3540228;40;20714;-68
2021/08/11 06:12:06;;;;;;;17.83;13.80;;;17.40;91.90;;;;;;3541779;40;20573;-69
2021/08/11 06:14:32;;;;;;;18.27;13.43;;;17.50;91.30;;;;;;3541553;40;20113;-68
2021/08/11 06:16:57;;;;;;;19.23;12.40;;;17.50;91.20;;;;;;3540531;40;20448;-68
2021/08/11 06:19:23;;;;;;;16.85;12.85;;;17.40;91.20;;;;;;3548387;40;20729;-68
2021/08/11 06:21:49;;;;;;;17.10;13.05;;;17.50;91.40;;;;;;3541023;40;20042;-69
2021/08/11 06:24:14;;;;;;;20.70;14.68;;;17.60;91.40;;;;;;3541375;40;20070;-69
2021/08/11 06:26:41;;;;;;;18.35;14.05;;;17.70;91.30;;;;;;3541121;40;20047;-68
2021/08/11 06:29:06;;;;;;;17.38;13.18;;;17.70;91.10;;;;;;3541201;40;20022;-69
2021/08/11 06:31:32;;;;;;;15.43;12.63;;;17.80;91.10;;;;;;3541154;40;20125;-68
2021/08/11 06:33:58;;;;;;;15.18;12.02;;;18.00;90.90;;;;;;3541316;40;20038;-68
2021/08/11 06:36:23;;;;;;;19.23;13.88;;;18.00;90.70;;;;;;3541528;40;20034;-68
2021/08/11 06:38:49;;;;;;;15.23;11.77;;;18.00;90.60;;;;;;3541029;40;20026;-69
2021/08/11 06:41:16;;;;;;;14.73;12.25;;;18.00;90.60;;;;;;3541117;40;20037;-69
2021/08/11 06:43:51;;;;;;;14.88;12.18;;;18.10;90.60;;;;;;3538100;40;20045;-69
2021/08/11 06:46:18;;;;;;;16.20;12.32;;;18.20;90.50;;;;;;3540435;40;20039;-69
2021/08/11 06:48:43;;;;;;;17.30;12.07;;;18.30;90.30;;;;;;3539882;40;20035;-69
2021/08/11 06:51:10;;;;;;;16.23;12.15;;;18.30;90.20;;;;;;3539936;40;20038;-69
2021/08/11 06:53:36;;;;;;;15.40;11.63;;;18.40;90.10;;;;;;3541126;40;20081;-69
2021/08/11 06:56:02;;;;;;;17.33;12.95;;;18.50;90.10;;;;;;3541241;40;20026;-69
2021/08/11 06:58:27;;;;;;;17.60;13.30;;;18.60;89.60;;;;;;3541376;40;20112;-69
2021/08/11 07:00:55;;;;;;;18.05;11.98;;;18.70;88.70;;;;;;3540875;40;20042;-69
2021/08/11 07:03:22;;;;;;;15.48;12.63;;;18.70;87.80;;;;;;3548383;40;20530;-69
2021/08/11 07:05:48;;;;;;;13.38;11.23;;;18.60;87.90;;;;;;3541730;40;20498;-69
2021/08/11 07:08:14;;;;;;;14.18;10.75;;;18.70;88.30;;;;;;3541245;40;20120;-69
2021/08/11 07:10:40;;;;;;;17.20;12.75;;;18.70;88.90;;;;;;3541306;40;20018;-69
2021/08/11 07:13:05;;;;;;;18.33;12.40;;;18.70;88.40;;;;;;3540636;40;20026;-68
2021/08/11 07:15:32;;;;;;;14.60;11.27;;;18.80;88.40;;;;;;3541447;40;20062;-68
2021/08/11 07:17:58;;;;;;;15.80;12.05;;;18.80;87.90;;;;;;3540943;40;20354;-69
2021/08/11 07:20:26;;;;;;;15.45;11.75;;;18.80;88.30;;;;;;3541011;40;20034;-67
2021/08/11 07:22:52;;;;;;;16.35;12.43;;;18.80;88.40;;;;;;3539879;40;20313;-70
2021/08/11 07:25:18;;;;;;;15.40;11.25;;;18.80;88.40;;;;;;3541070;40;20935;-71
2021/08/11 07:27:44;;;;;;;14.60;12.00;;;18.90;88.10;;;;;;3539922;40;20029;-69
2021/08/11 07:30:11;;;;;;;14.68;12.45;;;18.90;88.00;;;;;;3540446;40;20030;-70
2021/08/11 07:32:37;;;;;;;18.60;12.60;;;19.00;88.10;;;;;;3540170;40;20046;-69
2021/08/11 07:35:03;;;;;;;17.38;12.27;;;19.00;88.20;;;;;;3539906;40;20221;-69
2021/08/11 07:37:29;;;;;;;12.80;10.98;;;19.20;86.40;;;;;;3541034;40;20026;-69
2021/08/11 07:39:55;;;;;;;16.70;11.57;;;19.20;86.70;;;;;;3540728;40;20066;-69
2021/08/11 07:42:21;;;;;;;14.48;10.45;;;19.40;85.70;;;;;;3540220;40;20405;-69
2021/08/11 07:44:47;;;;;;;13.90;11.25;;;19.40;85.50;;;;;;3541544;40;20569;-66
2021/08/11 07:47:13;;;;;;;14.20;10.82;;;19.40;86.20;;;;;;3537452;40;20116;-69
2021/08/11 07:49:38;;;;;;;14.35;10.95;;;19.50;86.50;;;;;;3541475;40;20844;-69
2021/08/11 07:52:04;;;;;;;12.30;9.70;;;19.70;84.00;;;;;;3541355;40;20043;-68
2021/08/11 07:54:30;;;;;;;16.80;10.27;;;19.60;85.00;;;;;;3540808;40;20027;-69
2021/08/11 07:56:56;;;;;;;13.93;10.15;;;19.80;84.80;;;;;;3542004;40;20033;-70
2021/08/11 07:59:22;;;;;;;11.55;9.48;;;19.80;85.20;;;;;;3540677;40;20367;-67
2021/08/11 08:01:47;;;;;;;14.75;10.55;;;19.80;85.50;;;;;;3541367;40;20045;-69
2021/08/11 08:04:14;;;;;;;13.43;10.57;;;20.00;84.20;;;;;;3541788;40;20038;-69
2021/08/11 08:06:40;;;;;;;11.45;9.63;;;20.00;85.00;;;;;;3541482;40;20041;-68
2021/08/11 08:09:05;;;;;;;13.55;9.98;;;20.10;84.20;;;;;;3541476;40;20409;-69
2021/08/11 08:11:31;;;;;;;11.30;9.45;;;20.10;84.10;;;;;;3541196;40;20033;-68
2021/08/11 08:13:57;;;;;;;13.32;9.65;;;20.10;85.10;;;;;;3542121;40;20062;-69
2021/08/11 08:16:22;;;;;;;12.68;8.52;;;20.20;84.70;;;;;;3541992;40;21039;-70
2021/08/11 08:18:48;;;;;;;14.43;8.70;;;20.30;80.60;;;;;;3538681;40;20027;-68
2021/08/11 08:21:14;;;;;;;12.40;7.85;;;20.30;82.90;;;;;;3540128;40;20071;-70
2021/08/11 08:23:40;;;;;;;10.02;7.65;;;20.30;83.80;;;;;;3540966;40;20112;-70
2021/08/11 08:26:06;;;;;;;11.10;8.73;;;20.40;83.60;;;;;;3540654;40;20316;-70
2021/08/11 08:28:32;;;;;;;9.38;7.90;;;20.40;79.80;;;;;;3541756;40;20031;-69
2021/08/11 08:30:58;;;;;;;10.05;7.32;;;20.40;79.00;;;;;;3540017;40;20030;-70
2021/08/11 08:33:23;;;;;;;9.27;6.90;;;20.30;82.20;;;;;;3541305;40;20037;-70
2021/08/11 08:35:50;;;;;;;8.43;6.45;;;20.50;78.90;;;;;;3540739;40;20031;-70
2021/08/11 08:38:18;;;;;;;6.78;5.60;;;20.50;80.00;;;;;;3541564;40;20116;-69
2021/08/11 08:40:46;;;;;;;10.13;6.57;;;20.50;80.20;;;;;;3540371;40;20126;-70
2021/08/11 08:43:12;;;;;;;8.55;6.50;;;20.60;80.10;;;;;;3540809;40;20036;-70
2021/08/11 08:45:38;;;;;;;8.10;6.03;;;20.70;78.70;;;;;;3541220;40;20027;-70
2021/08/11 08:48:05;;;;;;;6.22;5.47;;;20.80;79.70;;;;;;3541029;40;20049;-70
2021/08/11 08:50:32;;;;;;;7.53;5.30;;;20.90;79.30;;;;;;3540889;40;20019;-70
2021/08/11 08:53:00;;;;;;;7.13;5.78;;;20.90;78.50;;;;;;3541082;40;20050;-69
2021/08/11 08:55:27;;;;;;;10.32;5.65;;;20.90;78.50;;;;;;3537371;40;20063;-69
2021/08/11 08:57:53;;;;;;;9.30;5.95;;;20.90;77.40;;;;;;3548078;40;20033;-71
2021/08/11 09:00:19;;;;;;;8.38;5.85;;;21.00;76.10;;;;;;3539551;40;20058;-69
2021/08/11 09:02:46;;;;;;;5.78;5.07;;;21.00;76.40;;;;;;3539051;40;20744;-70
2021/08/11 09:05:12;;;;;;;9.50;5.72;;;21.00;75.00;;;;;;3540722;40;20144;-70
2021/08/11 09:07:46;;;;;;;9.93;5.78;;;21.00;74.90;;;;;;3540681;40;20030;-69
2021/08/11 09:10:22;;;;;;;7.95;5.13;;;21.00;74.80;;;;;;3548100;40;20038;-70
2021/08/11 09:12:49;;;;;;;7.20;5.38;;;20.90;76.00;;;;;;3539258;40;20034;-69
2021/08/11 09:15:32;;;;;;;7.93;4.60;;;21.00;77.90;;;;;;3540463;40;20050;-69
2021/08/11 09:18:08;;;;;;;8.05;5.35;;;21.10;73.00;;;;;;3540669;40;20031;-70
2021/08/11 09:20:34;;;;;;;8.30;4.97;;;21.20;73.90;;;;;;3541334;40;20074;-70
2021/08/11 09:23:00;;;;;;;8.20;5.10;;;21.30;76.70;;;;;;3541013;40;20038;-69
2021/08/11 09:25:26;;;;;;;6.60;5.03;;;21.30;74.60;;;;;;3539226;40;20046;-70
2021/08/11 09:27:52;;;;;;;8.40;5.20;;;21.40;74.90;;;;;;3541693;40;20180;-70
2021/08/11 09:30:26;;;;;;;7.93;4.50;;;21.60;71.10;;;;;;3541120;40;20042;-69
2021/08/11 09:33:02;;;;;;;8.38;4.32;;;21.70;73.60;;;;;;3542258;40;20037;-69
2021/08/11 09:35:29;;;;;;;;;;;21.70;73.60;;;;;;3539987;40;20061;-68
2021/08/11 09:38:05;;;;;;;8.57;4.80;;;21.80;71.10;;;;;;3539978;40;19934;-69
2021/08/11 09:40:33;;;;;;;7.97;5.18;;;21.80;71.00;;;;;;3541955;40;20440;-69
2021/08/11 09:43:03;;;;;;;7.80;4.50;;;21.60;71.60;;;;;;3542191;40;20720;-70
2021/08/11 09:45:42;;;;;;;6.18;3.40;;;21.60;71.60;;;;;;3542235;40;20320;-69
2021/08/11 09:48:08;;;;;;;6.38;3.40;;;21.50;68.50;;;;;;3541777;40;20026;-67
2021/08/11 09:50:46;;;;;;;6.22;3.33;;;21.60;69.60;;;;;;3539974;40;20027;-70
2021/08/11 09:53:32;;;;;;;4.40;3.35;;;21.60;69.00;;;;;;3541328;40;20604;-68
2021/08/11 09:56:04;;;;;;;5.25;3.22;;;21.70;69.20;;;;;;3540975;40;20042;-69
2021/08/11 09:58:44;;;;;;;4.13;3.05;;;21.70;69.80;;;;;;3540584;40;20059;-69
2021/08/11 10:01:13;;;;;;;4.45;3.00;;;21.70;70.80;;;;;;3540303;40;20145;-70
2021/08/11 10:04:00;;;;;;;4.30;3.28;;;21.80;68.20;;;;;;3541565;40;20081;-67
2021/08/11 10:06:35;;;;;;;6.20;3.72;;;21.80;66.20;;;;;;3540686;40;20120;-68
2021/08/11 10:09:15;;;;;;;5.50;3.30;;;21.80;67.40;;;;;;3541316;40;20066;-70
2021/08/11 10:11:53;;;;;;;4.13;3.15;;;21.90;68.50;;;;;;3541286;40;20081;-69
2021/08/11 10:14:22;;;;;;;4.85;3.30;;;22.00;65.40;;;;;;3540945;40;20744;-70
2021/08/11 10:16:49;;;;;;;3.67;2.75;;;21.90;66.80;;;;;;3541625;40;20497;-67
2021/08/11 10:19:16;;;;;;;2.75;2.50;;;22.00;65.90;;;;;;3541104;40;20026;-71
2021/08/11 10:22:02;;;;;;;4.13;3.00;;;21.90;64.90;;;;;;3541555;40;20049;-69
2021/08/11 10:24:31;;;;;;;5.55;3.33;;;22.00;67.00;;;;;;3539114;40;20148;-69
2021/08/11 10:26:58;;;;;;;5.82;3.08;;;22.00;65.00;;;;;;3539096;40;20046;-69
2021/08/11 10:29:24;;;;;;;3.83;2.97;;;22.00;66.40;;;;;;3539851;40;20026;-68
2021/08/11 10:31:50;;;;;;;4.22;2.50;;;22.10;66.10;;;;;;3538602;40;20823;-68
2021/08/11 10:34:17;;;;;;;3.88;2.80;;;22.20;64.80;;;;;;3540201;40;20042;-72
2021/08/11 10:36:46;;;;;;;4.13;2.58;;;22.30;64.20;;;;;;3539728;40;20057;-68
2021/08/11 10:39:14;;;;;;;4.18;3.00;;;22.40;63.40;;;;;;3540340;40;20019;-67
2021/08/11 10:41:40;;;;;;;2.95;2.50;;;22.50;62.90;;;;;;3539745;40;20717;-69
2021/08/11 10:44:19;;;;;;;4.03;2.78;;;22.50;64.20;;;;;;3539976;40;20046;-69
2021/08/11 10:46:57;;;;;;;3.72;2.58;;;22.50;64.20;;;;;;3540271;40;20077;-68
2021/08/11 10:49:27;;;;;;;3.38;2.72;;;22.50;62.60;;;;;;3539568;40;20444;-68
2021/08/11 10:51:59;;;;;;;4.07;2.40;;;22.50;61.30;;;;;;3540343;40;20074;-68
2021/08/11 10:54:25;;;;;;;4.43;2.40;;;22.50;63.20;;;;;;3540437;40;20110;-69
2021/08/11 10:56:53;;;;;;;5.47;2.60;;;22.50;61.40;;;;;;3540432;40;20128;-69
2021/08/11 10:59:22;;;;;;;5.65;3.03;;;22.40;62.80;;;;;;3540739;40;20030;-69
2021/08/11 11:01:58;;;;;;;3.95;2.95;;;22.50;61.40;;;;;;3540263;40;20131;-70
2021/08/11 11:04:41;;;;;;;4.55;3.38;;;22.60;61.50;;;;;;3541412;40;20033;-70
2021/08/11 11:07:10;;;;;;;4.90;3.20;;;22.70;60.60;;;;;;3540219;40;20109;-69
2021/08/11 11:09:37;;;;;;;9.45;2.78;;;22.80;60.80;;;;;;3541004;40;20062;-69
2021/08/11 11:12:18;;;;;;;4.45;2.67;;;23.00;59.80;;;;;;3540659;40;20109;-68
2021/08/11 11:14:50;;;;;;;4.95;2.70;;;23.10;59.50;;;;;;3543436;40;20410;-68
2021/08/11 11:17:26;;;;;;;4.85;3.15;;;23.20;58.60;;;;;;3540592;40;20022;-69
2021/08/11 11:22:41;;;;;;;4.22;3.10;;;23.10;59.30;;;;;;3541643;40;19938;-68
2021/08/11 11:25:13;;;;;;;5.63;3.28;;;23.00;61.70;;;;;;3541892;40;20844;-69
2021/08/11 11:27:42;;;;;;;3.67;2.85;;;23.00;59.10;;;;;;3541059;40;20037;-69
2021/08/11 11:30:32;;;;;;;3.95;2.70;;;22.90;59.80;;;;;;3541335;40;20129;-68
2021/08/11 11:33:19;;;;;;;3.55;2.72;;;22.90;60.00;;;;;;3549025;40;20041;-69
2021/08/11 11:35:46;;;;;;;2.97;2.47;;;22.80;60.60;;;;;;3542063;40;20589;-68
2021/08/11 11:38:13;;;;;;;6.78;2.92;;;22.90;58.00;;;;;;3541291;40;20388;-69
2021/08/11 11:40:54;;;;;;;6.00;3.22;;;22.90;58.70;;;;;;3541708;40;20038;-68
2021/08/11 11:43:31;;;;;;;5.15;2.90;;;23.00;60.60;;;;;;3540898;40;20136;-68
2021/08/11 11:45:58;;;;;;;3.95;3.05;;;23.10;60.40;;;;;;3541928;40;20038;-69
2021/08/11 11:48:24;;;;;;;5.50;2.78;;;23.10;60.40;;;;;;3542220;40;20034;-70
2021/08/11 11:51:01;;;;;;;5.65;2.97;;;23.10;61.30;;;;;;3542531;40;20037;-69
2021/08/11 11:53:30;;;;;;;4.30;3.05;;;23.10;61.20;;;;;;3543341;40;20035;-69
2021/08/11 11:55:57;;;;;;;3.60;2.80;;;23.20;58.10;;;;;;3542637;40;20454;-70
2021/08/11 11:58:25;;;;;;;3.78;3.03;;;23.10;60.60;;;;;;3541699;40;20030;-68
2021/08/11 12:01:04;;;;;;;5.22;3.30;;;23.00;62.00;;;;;;3541797;40;20412;-69
2021/08/11 12:03:34;;;;;;;5.00;3.05;;;23.10;60.90;;;;;;3541468;40;20045;-69
2021/08/11 12:06:00;;;;;;;7.03;2.67;;;23.10;59.30;;;;;;3541121;40;20102;-68
2021/08/11 12:08:26;;;;;;;3.50;2.33;;;23.00;59.10;;;;;;3540911;40;20701;-68
2021/08/11 12:11:06;;;;;;;4.03;2.70;;;23.00;60.50;;;;;;3541241;40;20094;-69
2021/08/11 12:13:50;;;;;;;4.85;2.80;;;23.10;63.10;;;;;;3541342;40;20046;-69
2021/08/11 12:16:19;;;;;;;4.13;2.85;;;23.30;61.90;;;;;;3541970;40;20861;-70
2021/08/11 12:18:47;;;;;;;6.75;2.95;;;23.50;61.20;;;;;;3541437;40;20035;-68
2021/08/11 12:21:20;;;;;;;3.72;2.72;;;23.70;58.30;;;;;;3541010;40;20080;-69
2021/08/11 12:23:49;;;;;;;4.93;2.90;;;23.80;57.90;;;;;;3541287;40;20027;-69
2021/08/11 12:26:16;;;;;;;5.40;2.85;;;23.90;59.30;;;;;;3540799;40;20038;-68
2021/08/11 12:28:50;;;;;;;3.83;2.40;;;24.00;56.70;;;;;;3541410;40;20088;-70
2021/08/11 12:31:22;;;;;;;4.28;2.58;;;24.00;58.20;;;;;;3540761;40;20046;-69
2021/08/11 12:33:50;;;;;;;4.03;2.30;;;24.20;58.40;;;;;;3541159;40;20035;-68
2021/08/11 12:36:41;;;;;;;4.53;2.60;;;24.30;58.10;;;;;;3548439;40;20835;-68
2021/08/11 12:39:15;;;;;;;5.63;2.75;;;24.60;54.90;;;;;;3540715;40;20030;-69
2021/08/11 12:41:43;;;;;;;3.63;2.90;;;24.40;56.40;;;;;;3541191;40;20093;-69
2021/08/11 12:44:17;;;;;;;2.78;2.50;;;24.40;55.40;;;;;;3540083;40;20073;-69
2021/08/11 12:46:42;;;;;;;3.83;2.60;;;24.40;55.90;;;;;;3540997;40;20037;-69
2021/08/11 12:49:15;;;;;;;3.08;2.30;;;24.40;57.30;;;;;;3540793;40;20050;-68
2021/08/11 12:51:41;;;;;;;5.30;2.80;;;24.40;56.10;;;;;;3540263;40;20058;-68
2021/08/11 12:54:07;;;;;;;4.00;2.70;;;24.40;57.40;;;;;;3540992;40;20050;-68